Time;durP1;ratioP1;P1;durP2;ratioP2;P2;SDS_P1;SDS_P2;PMS_P1;PMS_P2;Temp;Humidity;BMP_temperature;BMP_pressure;BME280_temperature;BME280_humidity;BME280_pressure;Samples;Min_cycle;Max_cycle;Signal;HPM_P1;HPM_P2
2023/08/15 00:00:15;;;;;;;2.88;2.08;;;;;;;17.48;78.97;100580.41;5064705;28;20113;-62
2023/08/15 00:02:41;;;;;;;3.25;1.80;;;;;;;17.47;78.97;100582.16;5048980;28;20108;-60
2023/08/15 00:05:06;;;;;;;8.32;2.35;;;;;;;17.44;79.26;100592.78;5047581;28;20056;-60
2023/08/15 00:07:32;;;;;;;1.85;1.70;;;;;;;17.40;79.55;100584.13;5047605;28;20029;-60
2023/08/15 00:09:57;;;;;;;2.88;2.03;;;;;;;17.34;79.77;100579.97;5048798;28;20044;-60
2023/08/15 00:12:23;;;;;;;2.67;1.55;;;;;;;17.33;80.07;100580.84;5048885;28;20026;-61
2023/08/15 00:14:48;;;;;;;3.67;2.40;;;;;;;17.32;80.43;100583.53;5048655;28;20028;-61
2023/08/15 00:17:14;;;;;;;7.30;2.38;;;;;;;17.29;80.25;100575.78;5048767;28;20021;-60
2023/08/15 00:19:40;;;;;;;3.92;1.98;;;;;;;17.30;80.96;100574.88;5048766;28;20044;-61
2023/08/15 00:22:06;;;;;;;1.83;1.42;;;;;;;17.26;81.25;100581.13;5048641;28;20050;-60
2023/08/15 00:24:31;;;;;;;3.20;2.10;;;;;;;17.27;81.44;100573.19;5048602;28;20048;-60
2023/08/15 00:26:57;;;;;;;6.07;2.70;;;;;;;17.28;81.40;100571.44;5048469;28;20404;-61
2023/08/15 00:29:22;;;;;;;3.17;1.75;;;;;;;17.27;81.86;100574.97;5063598;28;20029;-61
2023/08/15 00:31:48;;;;;;;2.33;2.05;;;;;;;17.21;81.88;100557.66;5048744;28;20048;-61
2023/08/15 00:34:13;;;;;;;6.25;1.70;;;;;;;17.26;82.09;100571.50;5048350;28;20124;-61
2023/08/15 00:36:38;;;;;;;4.72;1.83;;;;;;;17.22;82.41;100573.34;5048410;28;20033;-60
2023/08/15 00:39:04;;;;;;;6.85;2.20;;;;;;;17.22;82.29;100575.97;5048406;28;20477;-60
2023/08/15 00:41:30;;;;;;;2.10;1.65;;;;;;;17.22;82.88;100572.53;5048215;28;20033;-60
2023/08/15 00:43:58;;;;;;;4.18;2.40;;;;;;;17.16;82.69;100567.44;5048102;28;20037;-61
2023/08/15 00:46:24;;;;;;;11.60;2.40;;;;;;;17.16;82.64;100564.81;5048322;28;20025;-60
2023/08/15 00:48:50;;;;;;;4.50;1.83;;;;;;;17.10;83.33;100563.28;5048236;28;20089;-61
2023/08/15 00:51:16;;;;;;;2.47;1.77;;;;;;;17.08;83.40;100558.09;5048220;28;20021;-60
2023/08/15 00:53:42;;;;;;;3.75;2.42;;;;;;;17.08;83.33;100549.34;5048220;28;20017;-60
2023/08/15 00:56:09;;;;;;;3.05;1.95;;;;;;;17.04;83.52;100553.84;5048160;28;20022;-60
2023/08/15 00:58:34;;;;;;;3.88;1.75;;;;;;;17.02;83.92;100550.41;5048044;28;20028;-60
2023/08/15 01:01:01;;;;;;;2.90;2.25;;;;;;;17.01;84.35;100551.31;5047699;28;20022;-60
2023/08/15 01:03:27;;;;;;;6.28;2.55;;;;;;;16.98;84.55;100540.94;5047921;28;20095;-60
2023/08/15 01:05:52;;;;;;;3.63;1.80;;;;;;;16.94;84.66;100537.53;5048020;28;20037;-60
2023/08/15 01:08:18;;;;;;;2.58;2.22;;;;;;;16.90;85.01;100548.19;5047329;28;20029;-60
2023/08/15 01:10:43;;;;;;;2.08;1.88;;;;;;;16.87;84.90;100548.28;5047542;28;20025;-60
2023/08/15 01:13:19;;;;;;;3.45;1.98;;;;;;;16.83;85.18;100545.75;5047855;28;20021;-60
2023/08/15 01:15:50;;;;;;;4.53;2.55;;;;;;;16.77;85.65;100542.47;5047494;28;20370;-60
2023/08/15 01:18:41;;;;;;;5.47;2.42;;;;;;;16.77;85.96;100547.72;5047794;28;20017;-59
2023/08/15 01:21:07;;;;;;;2.83;2.22;;;;;;;16.72;85.64;100538.22;5047466;28;20041;-59
2023/08/15 01:23:40;;;;;;;3.72;2.30;;;;;;;16.71;86.08;100533.88;5047474;28;20132;-60
2023/08/15 01:26:06;;;;;;;7.93;2.08;;;;;;;16.70;86.29;100533.94;5047652;28;20029;-60
2023/08/15 01:28:32;;;;;;;3.67;2.25;;;;;;;16.66;86.45;100527.09;5047493;28;20480;-61
2023/08/15 01:31:08;;;;;;;3.63;2.30;;;;;;;16.69;86.54;100534.84;5047366;28;20025;-59
2023/08/15 01:33:40;;;;;;;3.17;2.47;;;;;;;16.65;86.66;100525.34;5047239;28;20053;-58
2023/08/15 01:36:12;;;;;;;3.30;2.50;;;;;;;16.56;87.00;100516.03;5047276;28;20026;-61
2023/08/15 01:38:37;;;;;;;2.67;2.22;;;;;;;16.62;86.65;100530.69;5047501;28;20079;-59
2023/08/15 01:41:05;;;;;;;3.58;2.38;;;;;;;16.60;87.15;100539.47;5047262;28;20021;-61
2023/08/15 01:43:33;;;;;;;3.92;2.20;;;;;;;16.61;87.07;100545.59;5047299;28;20151;-61
2023/08/15 01:45:59;;;;;;;4.40;2.00;;;;;;;16.65;87.15;100541.09;5045706;28;20021;-61
2023/08/15 01:48:24;;;;;;;3.92;2.22;;;;;;;16.67;87.26;100536.66;5047046;28;20033;-60
2023/08/15 01:50:49;;;;;;;4.03;2.53;;;;;;;16.70;87.41;100544.44;5047109;28;20079;-61
2023/08/15 01:53:15;;;;;;;7.72;2.30;;;;;;;16.73;87.29;100546.94;5047000;28;20028;-60
2023/08/15 01:55:40;;;;;;;4.15;2.53;;;;;;;16.70;87.33;100542.66;5046892;28;20025;-61
2023/08/15 01:58:06;;;;;;;4.07;2.38;;;;;;;16.72;87.27;100542.63;5046795;28;20144;-60
2023/08/15 02:00:31;;;;;;;2.95;2.30;;;;;;;16.72;87.31;100540.00;5045978;28;20469;-60
2023/08/15 02:02:56;;;;;;;5.68;2.60;;;;;;;16.69;87.38;100548.81;5045838;28;20021;-61
2023/08/15 02:05:22;;;;;;;3.67;2.42;;;;;;;16.68;87.36;100543.59;5046445;28;20022;-62
2023/08/15 02:07:48;;;;;;;3.22;2.65;;;;;;;16.69;87.54;100546.19;5045301;28;20036;-61
2023/08/15 02:10:13;;;;;;;9.52;3.40;;;;;;;16.67;87.61;100541.91;5046735;28;20022;-61
2023/08/15 02:12:39;;;;;;;4.45;2.20;;;;;;;16.63;87.68;100537.69;5046871;28;20169;-60
2023/08/15 02:15:05;;;;;;;3.33;2.35;;;;;;;16.60;87.76;100525.50;5046565;28;20032;-61
2023/08/15 02:17:30;;;;;;;3.78;2.40;;;;;;;16.55;87.66;100520.41;5046567;28;20025;-61
2023/08/15 02:19:56;;;;;;;2.85;2.38;;;;;;;16.55;88.04;100523.03;5046209;28;20098;-61
2023/08/15 02:22:21;;;;;;;3.70;3.22;;;;;;;16.53;87.82;100526.63;5045897;28;20045;-60
2023/08/15 02:24:47;;;;;;;8.30;2.40;;;;;;;16.52;88.07;100517.88;5046484;28;20021;-61
2023/08/15 02:27:12;;;;;;;3.58;2.60;;;;;;;16.49;87.96;100518.00;5046230;28;20056;-60
2023/08/15 02:29:37;;;;;;;3.08;2.55;;;;;;;16.50;87.90;100511.88;5046295;28;20018;-59
2023/08/15 02:32:03;;;;;;;7.72;3.45;;;;;;;16.48;87.98;100513.66;5046500;28;20053;-59
2023/08/15 02:34:28;;;;;;;8.27;2.67;;;;;;;16.48;88.51;100513.66;5046209;28;20033;-60
2023/08/15 02:36:54;;;;;;;3.80;2.80;;;;;;;16.46;88.19;100510.22;5045990;28;20021;-60
2023/08/15 02:39:19;;;;;;;7.35;3.00;;;;;;;16.45;88.70;100501.50;5046210;28;20093;-61
2023/08/15 02:41:45;;;;;;;8.10;2.78;;;;;;;16.39;88.78;100498.25;5046165;28;20030;-59
2023/08/15 02:44:10;;;;;;;3.67;2.58;;;;;;;16.40;88.75;100497.31;5045854;28;20104;-60
2023/08/15 02:46:36;;;;;;;8.80;2.45;;;;;;;16.38;88.78;100497.38;5045824;28;20025;-59
2023/08/15 02:49:01;;;;;;;9.27;3.35;;;;;;;16.38;89.03;100500.00;5045869;28;20021;-60
2023/08/15 02:51:27;;;;;;;3.40;2.72;;;;;;;16.37;88.79;100497.41;5045751;28;20052;-59
2023/08/15 02:53:53;;;;;;;6.47;2.70;;;;;;;16.35;89.37;100490.47;5045876;28;20028;-61
2023/08/15 02:56:18;;;;;;;3.22;2.92;;;;;;;16.35;89.28;100489.59;5045948;28;20034;-59
2023/08/15 02:58:44;;;;;;;3.25;2.83;;;;;;;16.32;89.30;100494.94;5045802;28;20052;-60
2023/08/15 03:01:09;;;;;;;5.00;2.92;;;;;;;16.32;89.63;100494.94;5045598;28;20033;-60
2023/08/15 03:03:35;;;;;;;5.53;2.83;;;;;;;16.28;89.43;100496.78;5045706;28;20048;-59
2023/08/15 03:06:01;;;;;;;3.78;2.55;;;;;;;16.23;89.50;100488.22;5044299;28;20028;-60
2023/08/15 03:08:26;;;;;;;3.70;2.58;;;;;;;16.20;89.84;100485.69;5045543;28;20188;-59
2023/08/15 03:10:53;;;;;;;5.97;3.28;;;;;;;16.19;89.80;100491.84;5045727;28;20033;-59
2023/08/15 03:13:19;;;;;;;3.45;3.15;;;;;;;16.18;90.34;100485.75;5045531;28;20029;-59
2023/08/15 03:15:54;;;;;;;4.60;2.85;;;;;;;16.18;90.36;100474.44;5045333;28;20104;-60
2023/08/15 03:18:19;;;;;;;4.80;2.92;;;;;;;16.18;90.25;100477.03;5045810;28;20021;-60
2023/08/15 03:20:56;;;;;;;3.28;2.60;;;;;;;16.19;90.46;100484.00;5045417;28;20029;-60
2023/08/15 03:23:22;;;;;;;3.83;2.55;;;;;;;16.16;90.66;100481.47;5045489;28;20076;-61
2023/08/15 03:25:58;;;;;;;3.28;2.72;;;;;;;16.15;90.55;100492.84;5045312;28;20025;-60
2023/08/15 03:28:25;;;;;;;2.72;2.47;;;;;;;16.12;90.56;100483.31;5045350;28;20025;-60
2023/08/15 03:30:51;;;;;;;4.72;2.97;;;;;;;16.09;91.08;100484.28;5045244;28;20053;-60
2023/08/15 03:33:16;;;;;;;3.60;2.78;;;;;;;16.10;91.02;100487.75;5045042;28;20059;-60
2023/08/15 03:35:49;;;;;;;6.10;3.28;;;;;;;16.06;91.34;100492.22;5045240;28;20029;-60
2023/08/15 03:38:16;;;;;;;2.85;2.17;;;;;;;16.05;91.33;100497.50;5045336;28;20047;-60
2023/08/15 03:40:45;;;;;;;3.53;2.50;;;;;;;16.02;91.10;100506.31;5045290;28;20424;-60
2023/08/15 03:43:11;;;;;;;1.90;1.75;;;;;;;16.00;91.27;100505.50;5045271;28;20028;-60
2023/08/15 03:45:37;;;;;;;3.42;2.55;;;;;;;15.93;91.45;100496.94;5044942;28;20026;-62
2023/08/15 03:48:07;;;;;;;3.80;2.92;;;;;;;15.96;91.79;100501.22;5045035;28;20025;-62
2023/08/15 03:50:34;;;;;;;3.15;2.17;;;;;;;15.98;91.69;100502.06;5045081;28;20029;-60
2023/08/15 03:53:00;;;;;;;4.43;2.90;;;;;;;15.99;91.58;100501.16;5045060;28;20030;-61
2023/08/15 03:55:26;;;;;;;6.03;3.05;;;;;;;16.02;90.97;100503.69;5044775;28;20060;-60
2023/08/15 03:57:51;;;;;;;4.20;2.80;;;;;;;15.98;90.92;100488.97;5045272;28;20021;-60
2023/08/15 04:00:20;;;;;;;4.25;2.90;;;;;;;16.01;91.38;100494.13;5044871;28;20052;-59
2023/08/15 04:02:46;;;;;;;6.80;3.10;;;;;;;16.06;90.71;100493.97;5045108;28;20029;-61
2023/08/15 04:05:12;;;;;;;5.30;2.42;;;;;;;16.09;90.70;100497.38;5044909;28;20395;-60
2023/08/15 04:07:38;;;;;;;3.92;2.95;;;;;;;16.13;91.09;100487.66;5060205;28;20370;-59
2023/08/15 04:10:03;;;;;;;3.97;2.40;;;;;;;16.23;90.88;100498.69;5044863;28;20168;-59
2023/08/15 04:12:29;;;;;;;4.63;3.53;;;;;;;16.30;90.50;100483.66;5044930;28;20032;-60
2023/08/15 04:14:54;;;;;;;2.95;2.65;;;;;;;16.34;90.28;100491.38;5044638;28;20353;-59
2023/08/15 04:17:20;;;;;;;4.43;2.75;;;;;;;16.36;89.82;100486.06;5044880;28;20017;-60
2023/08/15 04:19:46;;;;;;;7.82;3.47;;;;;;;16.40;89.22;100490.34;5044960;28;20057;-60
2023/08/15 04:22:11;;;;;;;9.88;2.83;;;;;;;16.44;89.05;100485.81;5044659;28;20461;-60
2023/08/15 04:24:37;;;;;;;4.63;2.95;;;;;;;16.55;89.64;100478.47;5044956;28;20044;-61
2023/08/15 04:27:02;;;;;;;3.58;2.65;;;;;;;16.80;89.63;100476.84;5044682;28;20081;-60
2023/08/15 04:29:27;;;;;;;10.13;3.55;;;;;;;17.13;88.34;100492.34;5043915;28;20025;-60
2023/08/15 04:31:53;;;;;;;4.15;2.80;;;;;;;17.13;87.14;100494.09;5044886;28;20032;-61
2023/08/15 04:34:18;;;;;;;3.60;2.83;;;;;;;17.13;86.48;100488.88;5044521;28;20357;-60
2023/08/15 04:36:46;;;;;;;4.95;3.47;;;;;;;17.13;85.53;100481.88;5044661;28;20036;-60
2023/08/15 04:39:12;;;;;;;12.85;3.25;;;;;;;17.02;85.25;100474.34;5044623;28;20362;-60
2023/08/15 04:41:38;;;;;;;4.68;3.03;;;;;;;16.95;85.01;100478.06;5044694;28;20080;-60
2023/08/15 04:44:03;;;;;;;3.67;3.05;;;;;;;16.90;84.87;100472.97;5045391;28;20025;-61
2023/08/15 04:46:29;;;;;;;8.32;3.10;;;;;;;16.98;85.21;100481.44;5048496;28;20029;-60
2023/08/15 04:48:54;;;;;;;3.50;2.72;;;;;;;17.05;85.37;100482.09;5048353;28;20032;-60
2023/08/15 04:51:20;;;;;;;3.28;2.78;;;;;;;17.06;84.45;100469.84;5048233;28;20037;-61
2023/08/15 04:53:45;;;;;;;3.38;2.63;;;;;;;17.12;84.90;100460.94;5048333;28;20043;-60
2023/08/15 04:56:12;;;;;;;4.00;3.30;;;;;;;17.22;84.74;100451.84;5047901;28;20030;-59
2023/08/15 04:58:38;;;;;;;3.35;2.60;;;;;;;17.38;85.02;100456.53;5048353;28;20022;-60
2023/08/15 05:01:03;;;;;;;4.68;3.08;;;;;;;17.75;84.84;100455.16;5048175;28;20037;-60
2023/08/15 05:03:29;;;;;;;7.65;2.70;;;;;;;18.14;85.23;100458.97;5048029;28;20071;-60
2023/08/15 05:05:54;;;;;;;10.68;3.03;;;;;;;18.38;83.98;100451.03;5047991;28;20023;-60
2023/08/15 05:08:20;;;;;;;3.33;2.88;;;;;;;18.52;83.40;100445.19;5047987;28;20044;-61
2023/08/15 05:10:45;;;;;;;3.05;2.42;;;;;;;18.69;83.84;100457.63;5048027;28;20021;-61
2023/08/15 05:13:11;;;;;;;5.78;4.32;;;;;;;18.75;81.75;100447.78;5047858;28;20029;-61
2023/08/15 05:15:36;;;;;;;4.07;3.67;;;;;;;18.68;81.33;100441.91;5047396;28;20029;-61
2023/08/15 05:18:02;;;;;;;4.50;3.20;;;;;;;18.81;81.32;100442.25;5047860;28;20017;-60
2023/08/15 05:20:27;;;;;;;3.20;2.90;;;;;;;19.15;81.76;100432.91;5047696;28;20052;-60
2023/08/15 05:22:53;;;;;;;3.67;2.80;;;;;;;19.63;81.36;100429.91;5047476;28;20052;-60
2023/08/15 05:25:20;;;;;;;6.30;3.28;;;;;;;20.33;82.83;100443.41;5046341;28;20025;-60
2023/08/15 05:27:45;;;;;;;4.25;2.95;;;;;;;20.90;76.88;100451.09;5047682;28;20033;-61
2023/08/15 05:30:11;;;;;;;2.97;2.30;;;;;;;20.96;71.93;100439.41;5047293;28;20021;-61
2023/08/15 05:32:37;;;;;;;6.60;2.90;;;;;;;20.76;69.17;100441.28;5047404;28;20017;-61
2023/08/15 05:35:03;;;;;;;2.28;1.98;;;;;;;20.22;68.81;100450.06;5047188;28;20401;-60
2023/08/15 05:37:28;;;;;;;3.85;2.70;;;;;;;19.69;69.92;100452.50;5047446;28;20029;-60
2023/08/15 05:39:54;;;;;;;3.92;2.60;;;;;;;19.22;70.31;100454.56;5047427;28;20037;-61
2023/08/15 05:42:19;;;;;;;2.38;2.05;;;;;;;18.92;71.00;100458.44;5047325;28;20508;-60
2023/08/15 05:44:46;;;;;;;4.65;3.35;;;;;;;18.58;72.55;100452.81;5046997;28;20020;-59
2023/08/15 05:47:12;;;;;;;3.45;2.30;;;;;;;18.39;73.42;100444.84;5047345;28;20033;-60
2023/08/15 05:49:37;;;;;;;4.28;2.55;;;;;;;18.23;74.31;100438.50;5047338;28;20025;-61
2023/08/15 05:52:03;;;;;;;5.13;1.85;;;;;;;18.14;74.47;100443.22;5047235;28;20029;-60
2023/08/15 05:54:29;;;;;;;7.60;2.50;;;;;;;18.00;75.15;100451.59;5046913;28;20025;-59
2023/08/15 05:56:55;;;;;;;14.05;3.20;;;;;;;17.83;75.72;100442.59;5046750;28;20104;-61
2023/08/15 05:59:20;;;;;;;2.58;2.35;;;;;;;17.77;76.72;100442.84;5046806;28;20023;-61
2023/08/15 06:01:46;;;;;;;4.47;2.05;;;;;;;17.79;76.80;100454.13;5045196;28;20081;-62
2023/08/15 06:04:11;;;;;;;6.97;2.53;;;;;;;17.69;77.38;100443.13;5045760;28;20393;-61
2023/08/15 06:06:37;;;;;;;2.55;2.35;;;;;;;17.69;77.66;100448.38;5046513;28;20025;-61
2023/08/15 06:09:03;;;;;;;4.43;3.13;;;;;;;17.63;78.18;100440.72;5046944;28;20033;-61
2023/08/15 06:11:29;;;;;;;4.20;2.63;;;;;;;17.64;78.35;100433.69;5046796;28;20032;-61
2023/08/15 06:13:54;;;;;;;2.85;2.45;;;;;;;17.64;78.33;100426.69;5046764;28;20021;-61
2023/08/15 06:16:20;;;;;;;2.90;2.65;;;;;;;17.65;79.04;100427.56;5046409;28;20037;-60
2023/08/15 06:18:45;;;;;;;5.25;2.28;;;;;;;17.79;79.85;100422.63;5046657;28;20081;-60
2023/08/15 06:21:11;;;;;;;12.05;3.10;;;;;;;17.90;79.36;100430.09;5046391;28;20035;-60
2023/08/15 06:23:36;;;;;;;4.68;2.58;;;;;;;17.96;78.47;100426.34;5046460;28;20057;-61
2023/08/15 06:26:02;;;;;;;4.85;2.80;;;;;;;18.16;80.14;100411.63;5046548;28;20025;-60
2023/08/15 06:28:28;;;;;;;3.58;2.50;;;;;;;18.64;80.78;100414.06;5046425;28;20461;-60
2023/08/15 06:30:53;;;;;;;4.35;2.70;;;;;;;19.26;78.61;100414.03;5046268;28;20036;-60
2023/08/15 06:33:19;;;;;;;4.05;2.40;;;;;;;19.64;76.93;100405.31;5046427;28;20077;-60
2023/08/15 06:35:44;;;;;;;5.65;3.05;;;;;;;19.87;76.17;100402.50;5046079;28;20032;-60
2023/08/15 06:38:09;;;;;;;3.55;2.35;;;;;;;19.91;74.63;100402.28;5046563;28;20037;-60
2023/08/15 06:40:35;;;;;;;3.95;2.65;;;;;;;19.97;73.25;100401.13;5046284;28;20133;-61
2023/08/15 06:43:01;;;;;;;3.40;2.83;;;;;;;19.94;74.06;100403.91;5046412;28;20030;-61
2023/08/15 06:45:26;;;;;;;6.28;2.75;;;;;;;19.94;73.36;100390.75;5045940;28;20029;-60
2023/08/15 06:47:51;;;;;;;4.55;2.65;;;;;;;19.91;73.09;100402.28;5045842;28;20033;-60
2023/08/15 06:50:17;;;;;;;2.85;2.50;;;;;;;19.78;73.28;100383.59;5046034;28;20052;-60
2023/08/15 06:52:42;;;;;;;2.80;2.42;;;;;;;19.80;72.31;100404.59;5061327;28;20025;-60
2023/08/15 06:55:08;;;;;;;4.93;2.15;;;;;;;19.61;72.51;100401.97;5046113;28;20029;-60
2023/08/15 06:57:33;;;;;;;3.03;2.65;;;;;;;19.44;72.31;100395.72;5045545;28;20032;-61
2023/08/15 06:59:59;;;;;;;4.32;2.65;;;;;;;19.23;72.90;100372.06;5045513;28;20051;-61
2023/08/15 07:02:25;;;;;;;7.15;2.30;;;;;;;19.02;73.27;100372.09;5045693;28;20060;-61
2023/08/15 07:04:51;;;;;;;3.38;2.47;;;;;;;18.99;73.91;100387.16;5045307;28;20108;-60
2023/08/15 07:07:17;;;;;;;3.85;2.30;;;;;;;18.91;74.04;100387.50;5044521;28;20075;-61
2023/08/15 07:09:43;;;;;;;4.50;2.95;;;;;;;18.88;74.11;100390.25;5044539;28;20051;-60
2023/08/15 07:12:09;;;;;;;8.27;3.15;;;;;;;18.85;74.21;100387.75;5045382;28;20040;-60
2023/08/15 07:14:35;;;;;;;4.93;2.30;;;;;;;18.79;74.80;100392.34;5045359;28;20026;-60
2023/08/15 07:17:01;;;;;;;3.10;2.42;;;;;;;18.80;74.91;100391.41;5045511;28;20081;-61
2023/08/15 07:19:27;;;;;;;6.53;2.40;;;;;;;18.74;74.97;100394.31;5045885;28;20044;-61
2023/08/15 07:21:52;;;;;;;3.00;2.33;;;;;;;18.65;75.50;100399.97;5045326;28;20060;-60
2023/08/15 07:24:18;;;;;;;2.97;2.42;;;;;;;18.64;75.64;100395.66;5045650;28;20078;-59
2023/08/15 07:26:45;;;;;;;9.55;2.80;;;;;;;18.59;75.98;100398.47;5045307;28;20033;-60
2023/08/15 07:29:11;;;;;;;3.25;2.53;;;;;;;18.65;75.63;100390.31;5045562;28;20025;-60
2023/08/15 07:31:36;;;;;;;3.42;2.38;;;;;;;18.61;76.03;100388.72;5045314;28;20053;-60
2023/08/15 07:34:02;;;;;;;3.63;2.55;;;;;;;18.65;76.33;100386.84;5045283;28;20018;-60
2023/08/15 07:36:28;;;;;;;2.58;1.88;;;;;;;18.66;76.10;100388.53;5045440;28;20397;-61
2023/08/15 07:38:53;;;;;;;4.45;2.50;;;;;;;18.72;75.91;100377.78;5045203;28;20513;-61
2023/08/15 07:41:19;;;;;;;3.55;2.67;;;;;;;18.77;76.36;100381.03;5045275;28;20025;-61
2023/08/15 07:43:44;;;;;;;6.70;2.70;;;;;;;18.93;75.85;100378.59;5045225;28;20579;-61
2023/08/15 07:46:10;;;;;;;3.15;2.40;;;;;;;18.97;76.35;100370.56;5045098;28;20038;-60
2023/08/15 07:48:36;;;;;;;5.28;2.28;;;;;;;19.19;76.49;100360.84;5045049;28;20104;-61
2023/08/15 07:51:01;;;;;;;5.57;3.03;;;;;;;19.39;76.33;100360.84;5045153;28;20519;-61
2023/08/15 07:53:27;;;;;;;3.22;2.72;;;;;;;19.59;74.89;100366.94;5045171;28;20021;-61
2023/08/15 07:55:52;;;;;;;3.60;2.72;;;;;;;19.62;74.94;100351.00;5044980;28;20085;-61
2023/08/15 07:58:18;;;;;;;3.63;2.03;;;;;;;19.81;74.44;100362.38;5045111;28;20034;-61
2023/08/15 08:00:43;;;;;;;10.80;3.17;;;;;;;19.91;74.23;100354.00;5045000;28;20022;-61
2023/08/15 08:03:09;;;;;;;4.63;2.70;;;;;;;20.04;73.55;100362.19;5045094;28;20041;-61
2023/08/15 08:05:35;;;;;;;3.42;2.72;;;;;;;20.06;72.35;100361.19;5045071;28;20031;-61
2023/08/15 08:08:04;;;;;;;5.10;2.45;;;;;;;19.96;72.84;100338.84;5044849;28;20033;-60
2023/08/15 08:10:29;;;;;;;3.53;3.00;;;;;;;20.07;72.28;100356.78;5044781;28;20025;-60
2023/08/15 08:12:56;;;;;;;2.95;2.50;;;;;;;20.11;72.57;100362.75;5044717;28;20076;-60
2023/08/15 08:15:23;;;;;;;4.97;2.70;;;;;;;20.17;71.64;100358.06;5043386;28;20089;-60
2023/08/15 08:17:49;;;;;;;4.75;2.35;;;;;;;20.21;71.13;100348.19;5045129;28;20014;-60
2023/08/15 08:20:17;;;;;;;3.42;2.38;;;;;;;20.33;70.29;100361.69;5048819;28;20040;-60
2023/08/15 08:22:43;;;;;;;4.00;2.47;;;;;;;20.36;70.20;100354.47;5048639;28;20045;-61
2023/08/15 08:25:23;;;;;;;4.57;2.70;;;;;;;20.38;70.06;100359.69;5048717;28;20096;-61
2023/08/15 08:27:50;;;;;;;2.50;1.70;;;;;;;20.33;69.63;100365.19;5048733;28;20021;-61
2023/08/15 08:30:22;;;;;;;3.58;2.40;;;;;;;20.25;69.42;100362.94;5048323;28;20029;-61
2023/08/15 08:32:48;;;;;;;3.25;1.85;;;;;;;20.21;69.23;100357.91;5048462;28;20056;-60
2023/08/15 08:35:17;;;;;;;2.45;2.25;;;;;;;20.18;69.82;100341.28;5048589;28;20022;-59
2023/08/15 08:37:47;;;;;;;2.70;1.98;;;;;;;20.21;69.73;100347.34;5048632;28;20021;-59
2023/08/15 08:40:13;;;;;;;2.90;2.17;;;;;;;20.24;70.36;100350.66;5048693;28;20047;-60
2023/08/15 08:42:40;;;;;;;4.57;2.30;;;;;;;20.31;70.38;100344.16;5048485;28;20021;-61
2023/08/15 08:45:08;;;;;;;2.72;2.33;;;;;;;20.37;70.20;100344.75;5048311;28;20022;-60
2023/08/15 08:47:34;;;;;;;2.17;1.50;;;;;;;20.36;69.95;100350.97;5048154;28;20026;-60
2023/08/15 08:50:00;;;;;;;4.35;2.63;;;;;;;20.30;69.28;100342.44;5048406;28;20032;-61
2023/08/15 08:52:27;;;;;;;2.92;2.15;;;;;;;20.24;69.76;100336.66;5048392;28;20068;-61
2023/08/15 08:54:53;;;;;;;3.08;2.10;;;;;;;20.13;69.53;100327.47;5048288;28;20029;-61
2023/08/15 08:57:20;;;;;;;3.55;2.55;;;;;;;19.80;69.97;100307.97;5047814;28;20032;-61
2023/08/15 08:59:45;;;;;;;5.68;2.78;;;;;;;19.59;70.77;100314.28;5047979;28;20896;-60
2023/08/15 09:02:19;;;;;;;4.97;2.78;;;;;;;19.47;71.59;100321.84;5048272;28;20056;-61
2023/08/15 09:04:45;;;;;;;2.05;1.75;;;;;;;19.58;72.19;100318.72;5048189;28;20029;-60
2023/08/15 09:07:10;;;;;;;4.13;2.22;;;;;;;19.52;72.34;100313.72;5048116;28;20056;-59
2023/08/15 09:09:36;;;;;;;5.13;3.35;;;;;;;19.54;73.60;100318.00;5048006;28;20028;-60
2023/08/15 09:12:01;;;;;;;5.18;3.10;;;;;;;19.56;73.40;100321.41;5047919;28;20021;-59
2023/08/15 09:14:27;;;;;;;5.53;2.42;;;;;;;19.57;73.79;100314.34;5047557;28;20083;-60
2023/08/15 09:16:52;;;;;;;2.25;2.00;;;;;;;19.56;73.68;100313.50;5047807;28;20052;-59
2023/08/15 09:19:18;;;;;;;1.90;1.55;;;;;;;19.62;73.63;100319.38;5063331;28;20025;-60
2023/08/15 09:21:44;;;;;;;5.05;2.10;;;;;;;19.56;73.99;100324.03;5047746;28;20030;-60
2023/08/15 09:24:09;;;;;;;19.27;3.28;;;;;;;19.60;74.37;100324.72;5047668;28;20456;-60
2023/08/15 09:26:36;;;;;;;3.58;2.65;;;;;;;19.62;74.45;100322.03;5047884;28;20056;-61
2023/08/15 09:29:03;;;;;;;3.70;2.28;;;;;;;19.62;74.84;100325.53;5047713;28;20033;-59
2023/08/15 09:31:28;;;;;;;2.65;1.90;;;;;;;19.65;74.48;100325.38;5046805;28;20029;-59
2023/08/15 09:33:54;;;;;;;3.25;2.40;;;;;;;19.73;74.16;100319.72;5047067;28;20042;-60
2023/08/15 09:36:24;;;;;;;8.50;2.42;;;;;;;19.81;74.03;100329.88;5047386;28;20441;-58
2023/08/15 09:38:56;;;;;;;3.75;2.47;;;;;;;19.95;73.90;100321.34;5047349;28;20049;-59
2023/08/15 09:41:25;;;;;;;5.70;2.20;;;;;;;20.24;73.78;100324.31;5047684;28;20047;-60
2023/08/15 09:43:52;;;;;;;1.45;1.35;;;;;;;20.38;72.35;100306.94;5047494;28;20041;-60
2023/08/15 09:46:18;;;;;;;3.20;2.05;;;;;;;20.55;71.54;100314.84;5047279;28;20026;-60
2023/08/15 09:48:49;;;;;;;5.57;2.65;;;;;;;20.46;72.03;100304.78;5047299;28;20100;-60
2023/08/15 09:51:18;;;;;;;4.47;2.70;;;;;;;20.48;72.84;100313.44;5046109;28;20056;-60
2023/08/15 09:53:45;;;;;;;3.15;2.22;;;;;;;20.49;72.97;100309.88;5047562;28;20029;-59
2023/08/15 09:56:12;;;;;;;7.60;2.55;;;;;;;20.50;72.21;100311.59;5047053;28;20017;-59
2023/08/15 09:58:38;;;;;;;3.75;2.47;;;;;;;20.44;72.19;100314.53;5047030;28;20090;-59
2023/08/15 10:01:06;;;;;;;3.13;2.20;;;;;;;20.36;72.82;100311.44;5046874;28;20036;-59
2023/08/15 10:03:38;;;;;;;4.10;2.60;;;;;;;20.42;72.63;100311.13;5047175;28;20056;-58
2023/08/15 10:06:06;;;;;;;4.35;2.40;;;;;;;20.41;73.19;100305.00;5047081;28;20021;-60
2023/08/15 10:08:32;;;;;;;8.73;2.80;;;;;;;20.44;73.49;100298.72;5046931;28;20057;-60
2023/08/15 10:10:58;;;;;;;5.68;2.70;;;;;;;20.50;73.55;100295.75;5046779;28;20084;-60
2023/08/15 10:13:43;;;;;;;2.67;2.20;;;;;;;20.66;73.08;100293.16;5046943;28;20033;-60
2023/08/15 10:16:12;;;;;;;2.75;1.95;;;;;;;20.63;73.38;100303.03;5045870;28;20032;-59
2023/08/15 10:18:38;;;;;;;2.25;2.05;;;;;;;20.69;73.19;100297.41;5046805;28;20017;-59
2023/08/15 10:21:03;;;;;;;4.50;2.38;;;;;;;20.70;73.34;100293.00;5046551;28;20027;-59
2023/08/15 10:23:33;;;;;;;5.57;2.60;;;;;;;20.72;73.28;100278.78;5046539;28;20076;-59
2023/08/15 10:26:00;;;;;;;5.15;2.15;;;;;;;20.74;73.54;100276.94;5046129;28;20041;-59
2023/08/15 10:28:28;;;;;;;3.15;2.83;;;;;;;20.85;73.83;100292.19;5046464;28;20109;-60
2023/08/15 10:30:54;;;;;;;6.03;2.58;;;;;;;20.92;73.66;100284.81;5046278;28;20112;-60
2023/08/15 10:33:24;;;;;;;3.30;2.60;;;;;;;21.04;72.81;100289.44;5046389;28;20026;-59
2023/08/15 10:35:50;;;;;;;3.72;2.08;;;;;;;21.07;72.94;100288.41;5061391;28;20017;-59
2023/08/15 10:38:17;;;;;;;4.18;2.70;;;;;;;21.02;73.17;100282.56;5045973;28;20500;-60
2023/08/15 10:40:44;;;;;;;3.88;2.08;;;;;;;21.14;72.81;100286.28;5046111;28;20036;-59
2023/08/15 10:43:12;;;;;;;4.28;2.92;;;;;;;21.20;72.24;100277.19;5045321;28;20039;-60
2023/08/15 10:45:43;;;;;;;4.25;2.25;;;;;;;21.19;72.84;100286.91;5045847;28;20405;-59
2023/08/15 10:48:09;;;;;;;4.50;2.67;;;;;;;21.20;73.37;100278.03;5045901;28;20377;-60
2023/08/15 10:50:41;;;;;;;3.47;2.38;;;;;;;21.37;73.61;100289.44;5046083;28;20040;-60
2023/08/15 10:53:07;;;;;;;3.78;2.70;;;;;;;21.64;73.12;100278.25;5045962;28;20026;-59
2023/08/15 10:55:35;;;;;;;3.05;2.00;;;;;;;21.76;72.93;100274.91;5045984;28;20036;-59
2023/08/15 10:58:06;;;;;;;5.03;2.50;;;;;;;21.91;72.86;100286.41;5045986;28;20029;-60
2023/08/15 11:00:32;;;;;;;9.85;2.80;;;;;;;22.06;72.84;100275.03;5045686;28;20049;-59
2023/08/15 11:02:58;;;;;;;5.72;2.50;;;;;;;22.06;72.65;100257.34;5045158;28;20029;-59
2023/08/15 11:05:24;;;;;;;4.05;2.22;;;;;;;22.25;72.56;100275.63;5045098;28;20032;-60
2023/08/15 11:07:49;;;;;;;3.58;2.88;;;;;;;22.37;72.44;100268.75;5045577;28;20033;-61
2023/08/15 11:10:15;;;;;;;3.25;2.50;;;;;;;22.50;72.79;100279.44;5045825;28;20044;-58
2023/08/15 11:12:50;;;;;;;4.72;2.55;;;;;;;22.52;71.57;100280.19;5045600;28;20025;-59
2023/08/15 11:15:16;;;;;;;2.70;2.45;;;;;;;22.40;71.21;100291.50;5045492;28;20029;-59
2023/08/15 11:17:46;;;;;;;4.88;2.75;;;;;;;22.33;71.25;100300.75;5044005;28;20018;-59
2023/08/15 11:20:12;;;;;;;3.08;2.50;;;;;;;22.37;70.96;100291.69;5045509;28;20027;-60